Time;durP1;ratioP1;P1;durP2;ratioP2;P2;SDS_P1;SDS_P2;PMS_P1;PMS_P2;Temp;Humidity;BMP_temperature;BMP_pressure;BME280_temperature;BME280_humidity;BME280_pressure;Samples;Min_cycle;Max_cycle;Signal;HPM_P1;HPM_P2
2023/03/20 00:00:01;;;;;;;17.50;6.60;;;;;;;3.00;100.00;101023.91;105395;1296;25394;-77
2023/03/20 00:02:33;;;;;;;16.40;6.50;;;;;;;2.98;100.00;101024.20;105621;1296;25328;-74
2023/03/20 00:05:31;;;;;;;16.70;6.40;;;;;;;2.97;100.00;101023.21;105584;1296;25366;-74
2023/03/20 00:08:01;;;;;;;16.60;6.20;;;;;;;2.99;100.00;101030.58;105570;1296;25327;-74
2023/03/20 00:10:40;;;;;;;12.00;6.00;;;;;;;3.01;100.00;101021.56;105587;1296;25450;-74
2023/03/20 00:13:19;;;;;;;19.00;7.60;;;;;;;3.02;100.00;101014.72;105413;1296;25350;-74
2023/03/20 00:15:47;;;;;;;17.50;7.10;;;;;;;3.01;100.00;101016.71;105595;1296;22598;-74
2023/03/20 00:18:18;;;;;;;21.50;8.00;;;;;;;2.99;100.00;101012.40;105398;1296;23895;-73
2023/03/20 00:20:54;;;;;;;18.40;7.70;;;;;;;2.95;100.00;101014.27;105644;1296;25360;-73
2023/03/20 00:23:23;;;;;;;18.20;7.60;;;;;;;2.91;100.00;101008.64;105656;1296;23942;-74
2023/03/20 00:25:52;;;;;;;15.90;7.10;;;;;;;2.90;100.00;101005.33;105636;1296;25378;-74
2023/03/20 00:28:43;;;;;;;16.10;7.00;;;;;;;2.88;100.00;101004.76;105634;1296;25378;-74
2023/03/20 00:31:25;;;;;;;17.20;6.20;;;;;;;2.86;100.00;101013.05;105647;1296;22804;-75
2023/03/20 00:33:56;;;;;;;18.20;7.00;;;;;;;2.83;100.00;101004.67;105400;1296;24287;-75
2023/03/20 00:36:24;;;;;;;12.90;6.30;;;;;;;2.81;100.00;100995.52;105603;1296;25533;-74
2023/03/20 00:38:56;;;;;;;21.10;7.20;;;;;;;2.80;100.00;100994.73;104846;1296;1003116;-76
2023/03/20 00:41:26;;;;;;;19.30;7.50;;;;;;;2.80;100.00;100992.64;105071;1296;22807;-74
2023/03/20 00:44:03;;;;;;;14.70;6.50;;;;;;;2.78;100.00;100989.89;105578;1296;26618;-75
2023/03/20 00:46:37;;;;;;;16.20;7.40;;;;;;;2.77;100.00;100994.61;105581;1296;25467;-74
2023/03/20 00:49:10;;;;;;;18.40;7.60;;;;;;;2.74;100.00;100988.17;105370;1296;23538;-73
2023/03/20 00:51:38;;;;;;;17.40;6.70;;;;;;;2.70;100.00;100992.73;105658;1296;26536;-74
2023/03/20 00:54:15;;;;;;;14.90;7.10;;;;;;;2.69;100.00;100987.63;105580;1296;22544;-74
2023/03/20 00:56:53;;;;;;;20.70;6.70;;;;;;;2.69;100.00;100988.89;105583;1296;22538;-75
2023/03/20 00:59:23;;;;;;;17.00;6.90;;;;;;;2.68;100.00;100988.25;105544;1296;24257;-74
2023/03/20 01:01:52;;;;;;;17.70;7.80;;;;;;;2.64;100.00;100987.92;105383;1296;22644;-74
2023/03/20 01:04:22;;;;;;;18.50;7.30;;;;;;;2.59;100.00;100987.15;105373;1296;25530;-73
2023/03/20 01:06:51;;;;;;;19.30;7.90;;;;;;;2.54;100.00;100987.30;105598;1296;25392;-75
2023/03/20 01:09:19;;;;;;;17.40;7.40;;;;;;;2.48;100.00;100989.09;105448;1296;24458;-75
2023/03/20 01:11:48;;;;;;;16.70;6.90;;;;;;;2.41;100.00;100990.55;108352;1296;22156;-72
2023/03/20 01:14:18;;;;;;;22.20;7.80;;;;;;;2.37;100.00;100989.92;107702;1296;23939;-74
2023/03/20 01:16:47;;;;;;;18.40;8.10;;;;;;;2.36;100.00;100988.98;105221;1296;1002933;-74
2023/03/20 01:19:16;;;;;;;18.00;7.10;;;;;;;2.36;100.00;100989.27;105341;1296;25403;-73
2023/03/20 01:21:45;;;;;;;19.10;8.30;;;;;;;2.37;100.00;100991.16;105406;1296;24059;-74
2023/03/20 01:24:14;;;;;;;16.70;7.80;;;;;;;2.35;100.00;100989.19;105156;1296;22656;-75
2023/03/20 01:26:43;;;;;;;20.80;7.60;;;;;;;2.31;100.00;100983.05;105456;1296;25541;-74
2023/03/20 01:29:21;;;;;;;20.10;7.70;;;;;;;2.30;100.00;100979.02;105177;1296;24410;-75
2023/03/20 01:31:50;;;;;;;16.80;7.80;;;;;;;2.26;100.00;100980.13;105618;1296;24229;-75
2023/03/20 01:34:19;;;;;;;17.10;7.20;;;;;;;2.23;100.00;100974.80;105651;1296;25504;-74
2023/03/20 01:36:54;;;;;;;16.20;6.60;;;;;;;2.21;100.00;100974.59;105624;1296;26755;-74
2023/03/20 01:39:30;;;;;;;19.40;8.00;;;;;;;2.20;100.00;100981.93;105364;1296;25434;-74
2023/03/20 01:41:59;;;;;;;16.50;6.30;;;;;;;2.18;100.00;100983.67;105054;1296;24709;-74
2023/03/20 01:44:30;;;;;;;17.00;6.40;;;;;;;2.17;100.00;100980.52;105146;1296;25379;-75
2023/03/20 01:47:00;;;;;;;15.70;6.60;;;;;;;2.17;100.00;100976.09;105159;1296;24261;-74
2023/03/20 01:50:07;;;;;;;17.90;7.60;;;;;;;2.16;100.00;100979.84;105126;1296;22553;-75
2023/03/20 01:52:36;;;;;;;17.00;6.80;;;;;;;2.15;100.00;100996.45;105400;1296;25455;-75
2023/03/20 01:55:05;;;;;;;18.30;6.70;;;;;;;2.14;100.00;100985.55;105540;1296;25481;-74
2023/03/20 01:57:36;;;;;;;19.80;7.50;;;;;;;2.14;100.00;100986.77;105589;1296;25385;-74
2023/03/20 02:00:09;;;;;;;26.00;8.40;;;;;;;2.14;100.00;100989.75;105365;1296;25445;-74
2023/03/20 02:02:45;;;;;;;19.70;8.10;;;;;;;2.15;100.00;100996.81;105396;1296;26655;-76
2023/03/20 02:05:25;;;;;;;18.30;7.70;;;;;;;2.15;100.00;100996.28;105629;1296;25457;-75
2023/03/20 02:08:33;;;;;;;22.60;8.00;;;;;;;2.15;100.00;100990.98;105576;1296;22562;-73
2023/03/20 02:11:02;;;;;;;20.20;7.70;;;;;;;2.13;100.00;101003.51;104201;1302;1003020;-74
2023/03/20 02:13:31;;;;;;;13.50;7.60;;;;;;;2.12;100.00;100986.87;104905;1302;26677;-75
2023/03/20 02:16:08;;;;;;;15.80;7.40;;;;;;;2.11;100.00;100988.70;105040;1296;25459;-77
2023/03/20 02:18:57;;;;;;;15.60;6.80;;;;;;;2.10;100.00;101000.15;105582;1296;23252;-74
2023/03/20 02:21:44;;;;;;;37.00;11.00;;;;;;;2.09;100.00;100993.59;104866;1296;1003503;-74
2023/03/20 02:24:24;;;;;;;37.00;13.00;;;;;;;2.09;100.00;101002.00;105448;1296;25389;-74
2023/03/20 02:27:01;;;;;;;33.90;12.10;;;;;;;2.09;100.00;100999.86;105611;1296;23151;-74
2023/03/20 02:29:54;;;;;;;19.30;9.10;;;;;;;2.09;100.00;100998.23;105373;1296;22557;-76
2023/03/20 02:32:26;;;;;;;17.30;7.90;;;;;;;2.10;100.00;101000.70;105386;1296;25456;-73
2023/03/20 02:35:24;;;;;;;20.50;8.10;;;;;;;2.11;100.00;100992.83;105584;1296;22846;-76
2023/03/20 02:38:11;;;;;;;16.30;8.30;;;;;;;2.12;100.00;101007.31;105606;1296;22545;-74
2023/03/20 02:40:49;;;;;;;31.20;11.40;;;;;;;2.13;100.00;101001.23;105590;1296;22803;-75
2023/03/20 02:43:24;;;;;;;22.90;9.80;;;;;;;2.13;100.00;100997.83;105641;1296;25328;-74
2023/03/20 02:45:56;;;;;;;16.20;7.90;;;;;;;2.14;100.00;100993.15;105650;1296;22636;-76
2023/03/20 02:48:54;;;;;;;26.90;10.10;;;;;;;2.15;100.00;100998.81;105466;1296;25393;-75
2023/03/20 02:51:32;;;;;;;32.10;12.10;;;;;;;2.16;100.00;101009.58;105475;1296;22667;-76
2023/03/20 02:54:15;;;;;;;27.20;11.80;;;;;;;2.17;100.00;101009.02;105569;1296;25536;-74
2023/03/20 02:57:03;;;;;;;23.00;10.60;;;;;;;2.15;100.00;101006.98;105491;1296;22545;-73
2023/03/20 02:59:47;;;;;;;28.90;9.90;;;;;;;2.12;100.00;101010.39;105606;1296;25456;-73
2023/03/20 03:02:19;;;;;;;19.30;8.40;;;;;;;2.11;100.00;101007.57;105475;1296;25520;-76
2023/03/20 03:04:56;;;;;;;21.70;7.80;;;;;;;2.11;100.00;100999.04;105457;1296;22620;-76
2023/03/20 03:07:26;;;;;;;20.60;8.80;;;;;;;2.12;100.00;100993.48;105162;1296;22570;-75
2023/03/20 03:09:58;;;;;;;20.40;8.30;;;;;;;2.12;100.00;100986.52;105106;1296;24404;-75
2023/03/20 03:12:29;;;;;;;23.70;10.80;;;;;;;2.12;100.00;100987.23;105596;1296;25438;-75
2023/03/20 03:15:03;;;;;;;23.10;10.20;;;;;;;2.12;100.00;100990.27;105243;1296;23054;-75
2023/03/20 03:17:33;;;;;;;24.60;8.50;;;;;;;2.12;100.00;100991.67;105442;1296;26540;-75
2023/03/20 03:20:06;;;;;;;28.70;12.30;;;;;;;2.13;100.00;100993.21;105559;1296;25430;-74
2023/03/20 03:22:35;;;;;;;;;;;;;;;2.13;100.00;100993.00;105441;1296;22521;-74
2023/03/20 03:25:09;;;;;;;24.40;11.70;;;;;;;2.12;100.00;100992.77;105599;1296;26620;-75
2023/03/20 03:27:40;;;;;;;37.70;18.90;;;;;;;2.08;100.00;100994.41;104429;1296;1003449;-73
2023/03/20 03:30:18;;;;;;;43.00;22.20;;;;;;;2.06;100.00;100994.52;105309;1296;22551;-74
2023/03/20 03:32:50;;;;;;;27.00;11.70;;;;;;;2.05;100.00;100993.86;105276;1296;25617;-75
2023/03/20 03:35:20;;;;;;;31.10;12.50;;;;;;;2.05;100.00;100990.52;104546;1296;1003236;-75
2023/03/20 03:38:01;;;;;;;24.40;9.40;;;;;;;2.03;100.00;100988.30;105280;1296;25417;-75
2023/03/20 03:40:40;;;;;;;27.20;10.30;;;;;;;2.04;100.00;101002.45;105573;1296;25309;-77
2023/03/20 03:43:18;;;;;;;19.50;7.80;;;;;;;2.06;100.00;101001.45;105682;1296;25336;-75
2023/03/20 03:46:13;;;;;;;24.80;9.40;;;;;;;2.08;100.00;101004.72;107912;1296;22104;-76
2023/03/20 03:48:45;;;;;;;23.40;7.80;;;;;;;2.10;100.00;101018.98;107915;1296;1002276;-76
2023/03/20 03:51:15;;;;;;;23.20;8.40;;;;;;;2.13;100.00;101007.97;107482;1296;22634;-78
2023/03/20 03:54:08;;;;;;;19.40;7.90;;;;;;;2.17;100.00;101017.33;105618;1296;22551;-76
2023/03/20 03:56:37;;;;;;;18.50;8.30;;;;;;;2.21;100.00;101012.11;105470;1296;24762;-78
2023/03/20 03:59:23;;;;;;;23.10;9.10;;;;;;;2.21;100.00;101015.65;105192;1296;25378;-77
2023/03/20 04:01:52;;;;;;;22.30;8.20;;;;;;;2.21;100.00;101018.70;105205;1296;25430;-78
2023/03/20 04:04:21;;;;;;;23.70;9.30;;;;;;;2.23;100.00;101012.00;105466;1296;22574;-76
2023/03/20 04:06:50;;;;;;;26.50;8.90;;;;;;;2.24;100.00;101008.05;105530;1296;26606;-76
2023/03/20 04:09:18;;;;;;;22.70;8.10;;;;;;;2.24;100.00;101007.33;105659;1296;25400;-76
2023/03/20 04:11:52;;;;;;;22.10;8.60;;;;;;;2.25;100.00;101010.48;105637;1296;25384;-77
2023/03/20 04:14:21;;;;;;;19.50;8.20;;;;;;;2.25;100.00;101011.52;105500;1296;26694;-76
2023/03/20 04:16:49;;;;;;;23.50;9.10;;;;;;;2.27;100.00;101012.29;105665;1296;26592;-76
2023/03/20 04:19:23;;;;;;;23.40;9.30;;;;;;;2.27;100.00;101018.31;105653;1296;23188;-78
2023/03/20 04:21:54;;;;;;;18.20;7.30;;;;;;;2.26;100.00;101021.94;105637;1296;25273;-76
2023/03/20 04:24:22;;;;;;;27.40;9.20;;;;;;;2.26;100.00;101022.42;105643;1296;25325;-76
2023/03/20 04:26:51;;;;;;;19.40;8.30;;;;;;;2.28;100.00;101018.08;105443;1296;23922;-77
2023/03/20 04:29:20;;;;;;;42.30;12.20;;;;;;;2.30;100.00;101016.38;105519;1295;25565;-76
2023/03/20 04:32:06;;;;;;;27.80;12.00;;;;;;;2.32;100.00;101026.95;105690;1296;26734;-77
2023/03/20 04:34:45;;;;;;;43.70;17.80;;;;;;;2.34;100.00;101023.96;105666;1296;25520;-79
2023/03/20 04:37:30;;;;;;;43.10;18.70;;;;;;;2.35;100.00;101027.10;105625;1296;25409;-78
2023/03/20 04:40:04;;;;;;;48.30;18.60;;;;;;;2.36;100.00;101020.24;105689;1296;25441;-75
2023/03/20 04:42:33;;;;;;;57.30;21.90;;;;;;;2.38;100.00;101019.96;105597;1296;25375;-77
2023/03/20 04:45:07;;;;;;;73.10;27.70;;;;;;;2.39;100.00;101023.51;105692;1296;25416;-76
2023/03/20 04:47:38;;;;;;;65.30;25.30;;;;;;;2.37;100.00;101021.13;105570;1296;25389;-77
2023/03/20 04:50:07;;;;;;;61.20;23.10;;;;;;;2.37;100.00;101022.36;104769;1296;1003070;-76
2023/03/20 04:52:37;;;;;;;40.20;17.20;;;;;;;2.37;100.00;101023.02;105518;1296;25437;-76
2023/03/20 04:55:14;;;;;;;36.80;16.60;;;;;;;2.38;100.00;101024.79;105414;1295;26668;-75
2023/03/20 04:57:44;;;;;;;33.30;12.40;;;;;;;2.39;100.00;101029.73;105661;1296;23145;-76
2023/03/20 05:00:13;;;;;;;22.60;10.30;;;;;;;2.39;100.00;101023.48;104778;1296;1002986;-75
2023/03/20 05:02:42;;;;;;;55.40;23.30;;;;;;;2.40;100.00;101024.48;105643;1296;25526;-76
2023/03/20 05:05:11;;;;;;;36.10;13.50;;;;;;;2.39;100.00;101027.55;105540;1296;25338;-77
2023/03/20 05:07:44;;;;;;;32.00;13.00;;;;;;;2.41;100.00;101030.82;105661;1296;23738;-77
2023/03/20 05:10:20;;;;;;;25.60;10.70;;;;;;;2.44;100.00;101033.67;105617;1296;26713;-76
2023/03/20 05:12:55;;;;;;;33.60;13.40;;;;;;;2.45;100.00;101031.45;105500;1296;24259;-76
2023/03/20 05:15:55;;;;;;;24.90;10.50;;;;;;;2.50;100.00;101040.81;105589;1296;26543;-76
2023/03/20 05:18:46;;;;;;;33.00;13.20;;;;;;;2.53;100.00;101043.98;105663;1296;25500;-82
2023/03/20 05:21:33;;;;;;;28.60;13.20;;;;;;;2.56;100.00;101042.17;105695;1296;25456;-79
2023/03/20 05:24:26;;;;;;;25.70;11.50;;;;;;;2.59;100.00;101047.14;105653;1296;25331;-75
2023/03/20 05:27:24;;;;;;;26.70;10.60;;;;;;;2.59;100.00;101052.64;105697;1296;25469;-78
2023/03/20 05:30:18;;;;;;;28.70;12.20;;;;;;;2.59;100.00;101044.51;105208;1296;24260;-76
2023/03/20 05:32:51;;;;;;;21.20;10.30;;;;;;;2.58;100.00;101031.77;105639;1296;24860;-76
2023/03/20 05:35:28;;;;;;;28.30;10.10;;;;;;;2.60;100.00;101033.18;105635;1296;22542;-77
2023/03/20 05:38:21;;;;;;;24.60;9.50;;;;;;;2.64;100.00;101033.99;105537;1296;25485;-76
2023/03/20 05:41:04;;;;;;;28.20;11.00;;;;;;;2.69;100.00;101029.85;105738;1296;23873;-78
2023/03/20 05:43:57;;;;;;;24.70;10.20;;;;;;;2.71;100.00;101037.69;105649;1296;22665;-77
2023/03/20 05:47:05;;;;;;;23.70;10.80;;;;;;;2.73;100.00;101044.90;105357;1296;25327;-76
2023/03/20 05:50:12;;;;;;;25.40;10.40;;;;;;;2.74;100.00;101049.45;104499;1305;22562;-76
2023/03/20 05:53:00;;;;;;;38.30;15.50;;;;;;;2.75;100.00;101044.21;104550;1305;25497;-77
2023/03/20 05:55:43;;;;;;;33.00;13.20;;;;;;;2.76;100.00;101037.88;105183;1296;25334;-76
2023/03/20 05:58:30;;;;;;;73.70;36.50;;;;;;;2.75;100.00;101041.35;105593;1296;22546;-76
2023/03/20 06:01:22;;;;;;;30.60;15.20;;;;;;;2.74;100.00;101045.02;105154;1296;25436;-76
2023/03/20 06:04:24;;;;;;;46.70;23.60;;;;;;;2.77;100.00;101054.40;105476;1296;25338;-75
2023/03/20 06:07:12;;;;;;;37.80;15.10;;;;;;;2.78;100.00;101047.06;105539;1296;251863;-76
2023/03/20 06:09:42;;;;;;;32.90;14.40;;;;;;;2.81;100.00;101040.98;105693;1296;22545;-75
2023/03/20 06:12:13;;;;;;;34.30;13.10;;;;;;;2.86;100.00;101040.16;105687;1296;25363;-74
2023/03/20 06:14:42;;;;;;;27.90;12.50;;;;;;;2.90;100.00;101043.99;105600;1296;25449;-74
2023/03/20 06:17:12;;;;;;;33.20;13.80;;;;;;;2.92;100.00;101046.54;105225;1294;22743;-72
2023/03/20 06:19:43;;;;;;;29.10;13.00;;;;;;;2.92;100.00;101050.95;105296;1295;25456;-72
2023/03/20 06:22:12;;;;;;;33.50;13.50;;;;;;;2.94;100.00;101049.42;106171;1298;1002390;-71
2023/03/20 06:24:45;;;;;;;29.70;12.10;;;;;;;2.96;100.00;101052.67;104743;1298;1002296;-72
2023/03/20 06:27:14;;;;;;;28.60;12.80;;;;;;;2.94;100.00;101056.55;105256;1298;25924;-74
2023/03/20 06:29:47;;;;;;;28.50;13.50;;;;;;;2.95;100.00;101051.34;105154;1298;22672;-73
2023/03/20 06:32:23;;;;;;;31.00;15.30;;;;;;;2.98;100.00;101054.03;105210;1298;25510;-73
2023/03/20 06:34:53;;;;;;;39.40;17.10;;;;;;;3.00;100.00;101051.15;105141;1298;25272;-73
2023/03/20 06:37:25;;;;;;;48.60;21.80;;;;;;;3.03;100.00;101053.45;105269;1291;25339;-74
2023/03/20 06:40:02;;;;;;;30.70;16.40;;;;;;;3.06;100.00;101059.75;105078;1298;22734;-74
2023/03/20 06:42:31;;;;;;;33.20;13.90;;;;;;;3.07;100.00;101052.16;105199;1298;22549;-73
2023/03/20 06:45:00;;;;;;;28.10;14.40;;;;;;;3.09;100.00;101053.33;105194;1291;25505;-72
2023/03/20 06:48:08;;;;;;;43.20;19.60;;;;;;;3.11;100.00;101063.12;104764;1304;22759;-71
2023/03/20 06:50:38;;;;;;;31.80;15.50;;;;;;;3.15;100.00;101052.20;105012;1299;25460;-73
2023/03/20 06:53:07;;;;;;;26.40;12.70;;;;;;;3.16;100.00;101053.34;105169;1292;26669;-75
2023/03/20 06:55:53;;;;;;;46.60;22.30;;;;;;;3.13;100.00;101058.24;104533;1298;1003070;-75
2023/03/20 06:58:23;;;;;;;42.20;15.00;;;;;;;3.11;100.00;101050.69;105207;1292;25417;-72
2023/03/20 07:00:53;;;;;;;37.30;13.30;;;;;;;3.12;100.00;101050.45;105092;1292;23344;-74
2023/03/20 07:03:22;;;;;;;27.50;11.40;;;;;;;3.10;100.00;101054.12;105477;1291;23399;-75
2023/03/20 07:05:51;;;;;;;53.80;23.60;;;;;;;3.08;100.00;101055.17;105168;1299;24271;-74
2023/03/20 07:08:20;;;;;;;28.80;12.50;;;;;;;3.10;100.00;101056.29;105411;1295;22536;-73
2023/03/20 07:10:50;;;;;;;30.50;11.80;;;;;;;3.07;100.00;101055.05;105217;1296;25414;-74
2023/03/20 07:13:19;;;;;;;29.60;12.00;;;;;;;3.01;100.00;101055.05;105245;1298;25660;-73
2023/03/20 07:16:07;;;;;;;50.10;19.90;;;;;;;2.96;100.00;101063.59;105546;1279;23022;-72
2023/03/20 07:18:38;;;;;;;41.30;14.70;;;;;;;2.92;100.00;101057.40;105406;1296;22552;-71
2023/03/20 07:21:08;;;;;;;53.50;17.20;;;;;;;2.88;100.00;101049.10;105410;1296;23255;-69
2023/03/20 07:23:37;;;;;;;46.20;17.10;;;;;;;2.91;100.00;101048.56;105632;1296;24057;-73
2023/03/20 07:26:06;;;;;;;51.20;17.30;;;;;;;2.95;100.00;101045.98;105789;1289;22550;-71
2023/03/20 07:28:37;;;;;;;38.00;15.80;;;;;;;3.03;100.00;101047.98;105451;1296;25277;-72
2023/03/20 07:31:27;;;;;;;36.10;13.80;;;;;;;3.11;100.00;101055.16;106164;1296;24204;-71
2023/03/20 07:34:03;;;;;;;47.70;15.10;;;;;;;3.14;100.00;101056.36;105703;1296;22570;-70
2023/03/20 07:36:34;;;;;;;38.30;14.40;;;;;;;3.15;100.00;101054.71;105588;1290;27304;-71
2023/03/20 07:39:03;;;;;;;28.30;12.80;;;;;;;3.15;100.00;101058.82;105273;1297;25458;-72
2023/03/20 07:41:33;;;;;;;30.50;12.50;;;;;;;3.17;100.00;101060.63;105366;1290;24323;-69
2023/03/20 07:44:09;;;;;;;30.30;12.00;;;;;;;3.21;100.00;101061.60;105677;1296;25552;-70
2023/03/20 07:47:07;;;;;;;33.50;13.00;;;;;;;3.28;100.00;101064.90;105374;1296;25416;-72
2023/03/20 07:49:37;;;;;;;40.20;13.30;;;;;;;3.34;100.00;101050.80;105457;1296;24393;-73
2023/03/20 07:52:08;;;;;;;30.40;10.90;;;;;;;3.38;100.00;101056.61;105612;1296;25503;-70
2023/03/20 07:54:36;;;;;;;37.30;14.40;;;;;;;3.41;100.00;101052.80;105460;1296;25332;-71
2023/03/20 07:57:05;;;;;;;31.40;11.20;;;;;;;3.44;100.00;101053.18;105533;1296;22669;-70
2023/03/20 07:59:35;;;;;;;33.20;13.20;;;;;;;3.47;100.00;101053.89;105043;1296;1003097;-70
2023/03/20 08:02:04;;;;;;;65.70;24.10;;;;;;;3.52;100.00;101058.34;105873;1296;22584;-71
2023/03/20 08:04:35;;;;;;;46.40;20.60;;;;;;;3.62;100.00;101053.80;105739;1296;25340;-69
2023/03/20 08:07:05;;;;;;;47.60;17.30;;;;;;;3.72;100.00;101050.29;106005;1296;25454;-71
2023/03/20 08:09:34;;;;;;;31.30;14.30;;;;;;;3.79;100.00;101049.77;105537;1296;25396;-71
2023/03/20 08:12:09;;;;;;;34.50;14.80;;;;;;;3.87;100.00;101051.80;105575;1296;25452;-71
2023/03/20 08:14:42;;;;;;;46.60;21.10;;;;;;;3.93;100.00;101049.05;105527;1296;25461;-71
2023/03/20 08:17:15;;;;;;;185.00;71.40;;;;;;;3.99;100.00;101051.52;105240;1298;25460;-74
2023/03/20 08:19:48;;;;;;;78.00;35.40;;;;;;;4.02;100.00;101048.82;105131;1295;22566;-70
2023/03/20 08:22:17;;;;;;;30.00;15.10;;;;;;;4.07;100.00;101038.09;105150;1298;26573;-74
2023/03/20 08:24:45;;;;;;;36.90;17.40;;;;;;;4.18;100.00;101031.82;105309;1298;24800;-70
2023/03/20 08:27:16;;;;;;;63.60;24.50;;;;;;;4.30;100.00;101029.38;105250;1298;25536;-70
2023/03/20 08:29:45;;;;;;;43.10;19.40;;;;;;;4.45;100.00;101032.67;105208;1298;26544;-69
2023/03/20 08:32:13;;;;;;;36.20;13.90;;;;;;;4.56;100.00;101034.41;105793;1298;25520;-69
2023/03/20 08:34:43;;;;;;;41.70;19.70;;;;;;;4.62;100.00;101037.91;105256;1298;25389;-72
2023/03/20 08:37:12;;;;;;;37.70;17.60;;;;;;;4.65;100.00;101031.41;105277;1297;25376;-70
2023/03/20 08:39:43;;;;;;;78.40;33.30;;;;;;;4.73;100.00;101029.09;105114;1295;22584;-71
2023/03/20 08:42:13;;;;;;;50.70;25.30;;;;;;;4.79;100.00;101027.77;105091;1292;22676;-70
2023/03/20 08:44:47;;;;;;;30.00;15.30;;;;;;;4.82;100.00;101025.58;105324;1292;25667;-72
2023/03/20 08:47:15;;;;;;;28.60;14.30;;;;;;;4.90;100.00;101022.14;105750;1299;22543;-76
2023/03/20 08:49:45;;;;;;;34.20;12.50;;;;;;;4.99;100.00;101018.13;105311;1298;23938;-70
2023/03/20 08:52:14;;;;;;;34.20;18.70;;;;;;;5.04;100.00;101016.80;105753;1298;22931;-71
2023/03/20 08:54:45;;;;;;;46.30;17.80;;;;;;;5.12;100.00;101012.50;105525;1297;22638;-71
2023/03/20 08:57:19;;;;;;;48.60;18.00;;;;;;;5.21;100.00;101013.64;105715;1298;25481;-73
2023/03/20 08:59:48;;;;;;;40.60;14.00;;;;;;;5.29;100.00;101011.29;105332;1295;24280;-73
2023/03/20 09:02:16;;;;;;;27.40;11.40;;;;;;;5.36;100.00;101007.02;105203;1296;1003007;-74
2023/03/20 09:04:58;;;;;;;19.30;9.00;;;;;;;5.44;100.00;101008.38;106067;1297;1003269;-74
2023/03/20 09:07:29;;;;;;;21.90;10.10;;;;;;;5.54;100.00;100995.64;106351;1297;22116;-74
2023/03/20 09:10:04;;;;;;;22.90;10.10;;;;;;;5.61;100.00;100997.41;104815;1297;1017980;-72
2023/03/20 09:12:34;;;;;;;34.60;15.90;;;;;;;5.67;100.00;100985.91;106657;1297;24622;-72
2023/03/20 09:15:10;;;;;;;37.00;13.30;;;;;;;5.70;100.00;100983.52;106806;1296;24228;-73
2023/03/20 09:17:43;;;;;;;30.70;13.40;;;;;;;5.73;100.00;100982.55;105823;1296;1003312;-73
2023/03/20 09:20:13;;;;;;;30.10;12.50;;;;;;;5.77;100.00;100973.20;106034;1296;22604;-73
2023/03/20 09:22:43;;;;;;;33.20;12.40;;;;;;;5.74;100.00;100966.58;107692;1293;22240;-72
2023/03/20 09:25:12;;;;;;;26.30;12.90;;;;;;;5.72;100.00;100964.98;106974;1290;23029;-74
2023/03/20 09:27:42;;;;;;;31.10;13.70;;;;;;;5.67;100.00;100962.25;105964;1296;25403;-74
2023/03/20 09:30:11;;;;;;;29.40;15.90;;;;;;;5.70;100.00;100960.63;105474;1296;23231;-70
2023/03/20 09:32:47;;;;;;;31.90;13.20;;;;;;;5.84;100.00;100953.14;105745;1293;23337;-68
2023/03/20 09:35:16;;;;;;;30.50;12.30;;;;;;;5.92;100.00;100948.59;105690;1290;22713;-69
2023/03/20 09:37:44;;;;;;;30.30;12.40;;;;;;;5.99;100.00;100946.63;105614;1293;25407;-69
2023/03/20 09:40:51;;;;;;;26.70;11.30;;;;;;;6.09;100.00;100944.25;105586;1293;22536;-73
2023/03/20 09:43:25;;;;;;;26.80;14.10;;;;;;;6.21;100.00;100942.91;105682;1290;22669;-73
2023/03/20 09:46:23;;;;;;;29.60;13.20;;;;;;;6.25;100.00;100930.08;106460;1290;25277;-75
2023/03/20 09:49:37;;;;;;;30.60;12.20;;;;;;;6.24;100.00;100931.39;105377;1280;24322;-71
2023/03/20 09:52:25;;;;;;;27.40;11.50;;;;;;;6.33;100.00;100927.68;104846;1289;25614;-72
2023/03/20 09:55:20;;;;;;;31.80;12.10;;;;;;;6.34;100.00;100925.13;105518;1290;22557;-76
2023/03/20 09:58:01;;;;;;;26.20;10.80;;;;;;;6.25;100.00;100934.74;105426;1293;25429;-73
2023/03/20 10:00:30;;;;;;;25.40;10.20;;;;;;;6.20;100.00;100934.45;105417;1290;25366;-74
2023/03/20 10:03:05;;;;;;;29.70;11.30;;;;;;;6.19;100.00;100928.78;105282;1289;23402;-75
2023/03/20 10:05:51;;;;;;;23.30;9.90;;;;;;;6.23;100.00;100925.23;105375;1293;22573;-75
2023/03/20 10:08:21;;;;;;;30.70;12.70;;;;;;;6.23;100.00;100925.08;105483;1290;25499;-79
2023/03/20 10:10:59;;;;;;;25.90;10.60;;;;;;;6.23;100.00;100920.19;105389;1293;24097;-74
2023/03/20 10:13:36;;;;;;;32.90;11.50;;;;;;;6.31;100.00;100914.06;105601;1289;22559;-73
2023/03/20 10:16:21;;;;;;;28.00;12.00;;;;;;;6.33;100.00;100912.98;105506;1290;22775;-73
2023/03/20 10:19:01;;;;;;;39.80;15.10;;;;;;;6.36;100.00;100913.48;105507;1290;25465;-73
2023/03/20 10:21:44;;;;;;;44.50;17.90;;;;;;;6.45;100.00;100903.05;105337;1290;24182;-72
2023/03/20 10:24:35;;;;;;;29.30;12.50;;;;;;;6.56;100.00;100893.09;105417;1290;25400;-69
2023/03/20 10:27:18;;;;;;;25.10;11.20;;;;;;;6.63;100.00;100891.25;105404;1293;23305;-70
2023/03/20 10:30:19;;;;;;;28.90;10.90;;;;;;;6.60;100.00;100890.20;105581;1290;25334;-71
2023/03/20 10:33:14;;;;;;;30.10;11.40;;;;;;;6.64;100.00;100891.55;105590;1290;25396;-75
2023/03/20 10:36:09;;;;;;;23.90;10.50;;;;;;;6.67;100.00;100886.98;105794;1290;23934;-76
2023/03/20 10:39:01;;;;;;;26.70;10.30;;;;;;;6.76;100.00;100878.17;105471;1289;25572;-73
2023/03/20 10:41:34;;;;;;;33.30;14.10;;;;;;;6.97;100.00;100867.15;105287;1290;25453;-74
2023/03/20 10:44:03;;;;;;;36.40;16.20;;;;;;;7.10;100.00;100862.81;105690;1289;22755;-71
2023/03/20 10:46:39;;;;;;;32.50;12.20;;;;;;;7.23;100.00;100859.41;105645;1289;22709;-73
2023/03/20 10:49:17;;;;;;;29.60;11.70;;;;;;;7.25;100.00;100863.05;105550;1291;25329;-73
2023/03/20 10:51:51;;;;;;;28.60;10.30;;;;;;;7.18;100.00;100863.08;105620;1289;24453;-70
2023/03/20 10:54:23;;;;;;;32.80;12.30;;;;;;;7.16;100.00;100860.48;105597;1293;22546;-73
2023/03/20 10:56:55;;;;;;;27.10;10.50;;;;;;;7.16;100.00;100860.70;105435;1290;23810;-74
2023/03/20 10:59:34;;;;;;;28.70;12.10;;;;;;;7.27;100.00;100854.83;105497;1295;22545;-71
2023/03/20 11:02:11;;;;;;;36.30;14.90;;;;;;;7.32;100.00;100853.30;105752;1296;22624;-74
2023/03/20 11:04:39;;;;;;;36.40;13.50;;;;;;;7.34;100.00;100854.85;105411;1296;27616;-71
2023/03/20 11:07:20;;;;;;;27.50;12.30;;;;;;;7.35;100.00;100849.25;105482;1296;22545;-72
2023/03/20 11:10:04;;;;;;;28.10;11.80;;;;;;;7.39;100.00;100848.70;105499;1296;22577;-72
2023/03/20 11:12:53;;;;;;;28.20;14.40;;;;;;;7.58;100.00;100838.86;105663;1296;25382;-73
2023/03/20 11:15:28;;;;;;;29.00;12.50;;;;;;;7.87;100.00;100824.37;105547;1291;25400;-70
2023/03/20 11:17:57;;;;;;;31.30;13.10;;;;;;;8.14;100.00;100819.41;105708;1292;25396;-72
2023/03/20 11:20:26;;;;;;;30.00;12.50;;;;;;;8.34;100.00;100822.34;105605;1293;25289;-72
2023/03/20 11:23:05;;;;;;;29.40;14.00;;;;;;;8.24;100.00;100830.96;105664;1296;25319;-71
2023/03/20 11:25:38;;;;;;;29.20;15.20;;;;;;;8.25;100.00;100825.89;105627;1297;22545;-73
2023/03/20 11:28:30;;;;;;;27.50;11.70;;;;;;;8.41;100.00;100824.63;105688;1296;25366;-71
2023/03/20 11:31:07;;;;;;;26.80;11.60;;;;;;;8.44;100.00;100824.33;105344;1296;22542;-69
2023/03/20 11:33:43;;;;;;;29.40;11.50;;;;;;;8.60;100.00;100823.83;105559;1296;22555;-71
2023/03/20 11:36:28;;;;;;;33.60;11.80;;;;;;;8.77;100.00;100820.11;105563;1296;25290;-71
2023/03/20 11:39:05;;;;;;;30.10;11.40;;;;;;;9.00;100.00;100809.19;105495;1296;22552;-72
2023/03/20 11:41:50;;;;;;;30.10;12.40;;;;;;;9.24;100.00;100799.60;105487;1290;26633;-73
2023/03/20 11:44:34;;;;;;;24.50;9.90;;;;;;;9.47;100.00;100794.59;105551;1296;22562;-71